Time;durP1;ratioP1;P1;durP2;ratioP2;P2;SDS_P1;SDS_P2;PMS_P1;PMS_P2;Temp;Humidity;BMP_temperature;BMP_pressure;BME280_temperature;BME280_humidity;BME280_pressure;Samples;Min_cycle;Max_cycle;Signal;HPM_P1;HPM_P2
2022/11/04 05:37:17;;;;;;;27.40;13.70;;;;;;;18.16;44.36;101007.48;101506;1337;600473;-80
2022/11/04 05:39:42;;;;;;;26.90;14.50;;;;;;;18.10;44.25;101009.61;101614;1316;58905;-81
2022/11/04 05:42:08;;;;;;;24.70;14.50;;;;;;;18.06;44.15;101005.19;101564;1316;59386;-81
2022/11/04 05:44:35;;;;;;;26.40;13.90;;;;;;;18.04;44.13;101008.70;101563;1320;59370;-82
2022/11/04 05:47:00;;;;;;;25.70;14.00;;;;;;;18.00;44.11;101014.77;101510;1319;59594;-83
2022/11/04 05:49:27;;;;;;;25.40;14.50;;;;;;;17.97;44.05;101016.04;101460;1316;58919;-81
2022/11/04 05:51:52;;;;;;;23.40;13.90;;;;;;;17.92;43.88;101013.05;101415;1321;221106;-81
2022/11/04 05:54:18;;;;;;;25.20;14.90;;;;;;;17.89;43.82;101013.58;101458;1313;59421;-81
2022/11/04 05:56:43;;;;;;;22.80;15.10;;;;;;;17.79;43.87;101011.23;101395;1316;59330;-81
2022/11/04 05:59:09;;;;;;;24.10;14.60;;;;;;;17.73;43.94;101013.18;101381;1316;60691;-80
2022/11/04 06:01:36;;;;;;;26.00;14.60;;;;;;;17.71;43.80;101012.90;101269;1321;59696;-81
2022/11/04 06:04:02;;;;;;;27.60;14.80;;;;;;;17.69;43.94;101010.72;101190;1321;59689;-81
2022/11/04 06:06:30;;;;;;;28.00;14.70;;;;;;;17.71;43.84;101012.40;101216;1319;59612;-81
2022/11/04 06:08:56;;;;;;;27.10;15.10;;;;;;;17.73;43.91;101011.58;102662;1325;57524;-81
2022/11/04 06:11:21;;;;;;;25.90;14.10;;;;;;;17.77;44.09;101013.48;101307;1316;59828;-81
2022/11/04 06:13:48;;;;;;;22.20;13.60;;;;;;;17.81;44.20;101012.77;101354;1316;59851;-80
2022/11/04 06:16:14;;;;;;;26.50;14.80;;;;;;;17.83;44.30;101015.65;101344;1321;59673;-81
2022/11/04 06:18:39;;;;;;;23.20;14.00;;;;;;;17.88;44.43;101014.89;101338;1316;59809;-81
2022/11/04 06:21:06;;;;;;;26.90;14.10;;;;;;;17.92;44.50;101008.80;101470;1321;60171;-81
2022/11/04 06:23:32;;;;;;;20.10;12.60;;;;;;;17.96;44.52;101008.95;101503;1314;74110;-80
2022/11/04 06:25:57;;;;;;;26.50;14.70;;;;;;;17.99;44.53;101008.59;101444;1321;59709;-81
2022/11/04 06:28:23;;;;;;;27.40;14.30;;;;;;;18.03;44.54;101005.88;101368;1316;59719;-80
2022/11/04 06:30:49;;;;;;;28.10;14.20;;;;;;;18.05;44.50;101009.50;101473;1323;59930;-81
2022/11/04 06:33:14;;;;;;;30.40;14.00;;;;;;;18.08;44.57;101012.55;101495;1316;59677;-81
2022/11/04 06:35:40;;;;;;;26.80;12.90;;;;;;;18.10;44.53;101014.39;101456;1320;60146;-79
2022/11/04 06:38:05;;;;;;;24.90;12.70;;;;;;;18.12;44.72;101013.03;101440;1313;59779;-80
2022/11/04 06:40:31;;;;;;;22.90;11.60;;;;;;;18.14;44.49;101012.95;101458;1319;59735;-80
2022/11/04 06:42:56;;;;;;;25.70;13.80;;;;;;;18.16;44.56;101013.21;101483;1320;59661;-80
2022/11/04 06:45:22;;;;;;;24.70;13.40;;;;;;;18.17;44.43;101017.92;101347;1313;59781;-81
2022/11/04 06:47:48;;;;;;;30.30;14.20;;;;;;;18.16;44.28;101011.78;101343;1321;59730;-81
2022/11/04 06:50:14;;;;;;;26.00;12.80;;;;;;;18.16;44.47;101013.91;101386;1316;60225;-81
2022/11/04 06:52:39;;;;;;;26.80;14.70;;;;;;;18.14;44.23;101013.67;101097;1316;59732;-82
2022/11/04 06:55:06;;;;;;;27.90;14.20;;;;;;;17.90;44.10;101011.38;101077;1321;59736;-82
2022/11/04 06:57:32;;;;;;;33.50;15.80;;;;;;;17.67;43.94;101014.56;101634;1316;59810;-82
2022/11/04 06:59:58;;;;;;;28.60;14.80;;;;;;;17.53;44.13;101014.05;101243;1316;59707;-81
2022/11/04 07:02:24;;;;;;;37.10;14.80;;;;;;;17.54;44.45;101005.27;101292;1320;59723;-81
2022/11/04 07:04:49;;;;;;;26.50;13.80;;;;;;;17.55;44.52;100996.48;101376;1324;61530;-80
2022/11/04 07:07:15;;;;;;;29.50;14.50;;;;;;;17.61;44.66;100997.42;101146;1320;73580;-80
2022/11/04 07:09:42;;;;;;;26.50;13.10;;;;;;;17.69;44.84;100994.89;101302;1316;59819;-80
2022/11/04 07:12:07;;;;;;;28.00;13.50;;;;;;;17.76;44.86;100994.30;101318;1320;59810;-80
2022/11/04 07:14:35;;;;;;;30.70;13.10;;;;;;;17.83;44.97;100988.62;101766;1321;59812;-80
2022/11/04 07:17:00;;;;;;;30.10;12.90;;;;;;;17.88;45.08;100982.79;101872;1324;59726;-80
2022/11/04 07:19:26;;;;;;;23.90;12.70;;;;;;;17.94;44.92;100981.46;101529;1320;59726;-80
2022/11/04 07:21:53;;;;;;;24.80;11.90;;;;;;;17.98;44.88;100981.27;101390;1319;59962;-80
2022/11/04 07:24:18;;;;;;;23.80;12.40;;;;;;;18.01;44.85;100981.08;101574;1321;59705;-81
2022/11/04 07:26:44;;;;;;;20.50;11.70;;;;;;;18.03;44.76;100984.67;101452;1319;59727;-81
2022/11/04 07:29:11;;;;;;;26.70;12.00;;;;;;;18.05;44.78;100982.09;101455;1320;61940;-81
2022/11/04 07:31:37;;;;;;;32.20;13.20;;;;;;;18.07;44.77;100978.23;101441;1317;59824;-81
2022/11/04 07:34:03;;;;;;;31.30;13.30;;;;;;;18.07;44.77;100976.24;101482;1316;59692;-81
2022/11/04 07:36:28;;;;;;;22.20;12.20;;;;;;;18.06;44.63;100967.05;101417;1320;61041;-80
2022/11/04 07:38:54;;;;;;;23.50;13.20;;;;;;;18.07;44.64;100961.69;101429;1316;59889;-80
2022/11/04 07:41:19;;;;;;;27.00;13.00;;;;;;;18.09;44.70;100951.79;101368;1321;59744;-82
2022/11/04 07:43:49;;;;;;;27.30;13.10;;;;;;;18.10;44.59;100948.17;101502;1321;59754;-82
2022/11/04 07:46:16;;;;;;;28.30;12.60;;;;;;;18.11;44.67;100947.75;101454;1316;60113;-80
2022/11/04 07:48:42;;;;;;;26.20;13.60;;;;;;;18.12;44.64;100940.92;101654;1320;59287;-80
2022/11/04 07:51:08;;;;;;;34.10;15.10;;;;;;;18.14;44.51;100942.95;101254;1316;60782;-80
2022/11/04 07:53:34;;;;;;;35.50;15.20;;;;;;;18.14;44.51;100945.61;101205;1321;59587;-81
2022/11/04 07:56:02;;;;;;;38.70;15.70;;;;;;;18.05;44.44;100951.81;101215;1316;59661;-81
2022/11/04 07:58:29;;;;;;;39.40;14.00;;;;;;;17.92;44.47;100951.98;101075;1321;72650;-81
2022/11/04 08:00:59;;;;;;;33.30;14.80;;;;;;;17.88;44.55;100950.17;101185;1319;72862;-83
2022/11/04 08:03:25;;;;;;;29.10;14.00;;;;;;;17.88;44.70;100947.70;102184;1323;60124;-82
2022/11/04 08:05:58;;;;;;;37.20;15.20;;;;;;;17.84;44.94;100945.45;101219;1319;61426;-80
2022/11/04 08:08:24;;;;;;;33.30;14.50;;;;;;;17.82;44.91;100945.39;101888;1320;73627;-81
2022/11/04 08:10:59;;;;;;;38.90;14.30;;;;;;;17.82;45.08;100945.02;101278;1313;59668;-81
2022/11/04 08:13:29;;;;;;;27.40;13.70;;;;;;;17.81;45.11;100938.89;101241;1316;60387;-82
2022/11/04 08:15:56;;;;;;;29.80;14.00;;;;;;;17.80;45.18;100936.43;102770;1324;60274;-81
2022/11/04 08:18:22;;;;;;;32.20;13.00;;;;;;;17.81;45.16;100933.52;101367;1320;74397;-80
2022/11/04 08:20:49;;;;;;;27.00;13.20;;;;;;;17.83;45.24;100930.39;101497;1313;59684;-81
2022/11/04 08:23:15;;;;;;;26.60;13.00;;;;;;;17.88;45.33;100927.98;101443;1320;59591;-81
2022/11/04 08:25:41;;;;;;;25.20;12.80;;;;;;;17.93;45.45;100924.88;101449;1320;60315;-80
2022/11/04 08:28:07;;;;;;;19.60;11.70;;;;;;;17.97;45.43;100917.69;101322;1313;59725;-81
2022/11/04 08:30:32;;;;;;;23.40;11.40;;;;;;;18.02;45.48;100917.77;101382;1316;59831;-80
2022/11/04 08:32:58;;;;;;;21.00;11.80;;;;;;;18.06;45.47;100915.25;101447;1320;59711;-80
2022/11/04 08:35:24;;;;;;;22.70;11.70;;;;;;;18.09;45.55;100908.67;101292;1321;59833;-81
2022/11/04 08:37:49;;;;;;;26.20;12.20;;;;;;;18.12;45.73;100907.25;101354;1321;59830;-80
2022/11/04 08:40:15;;;;;;;22.10;11.20;;;;;;;18.15;45.60;100905.85;101402;1313;72699;-80
2022/11/04 08:42:40;;;;;;;24.60;11.10;;;;;;;18.18;45.70;100907.44;101151;1316;59775;-80
2022/11/04 08:45:06;;;;;;;22.80;11.20;;;;;;;18.19;45.79;100906.81;101261;1312;59722;-80
2022/11/04 08:47:32;;;;;;;18.60;11.20;;;;;;;18.22;45.67;100901.69;101351;1313;59720;-81
2022/11/04 08:50:00;;;;;;;15.60;10.30;;;;;;;18.24;45.65;100900.83;101456;1321;59967;-80
2022/11/04 08:52:25;;;;;;;23.30;12.20;;;;;;;18.26;45.66;100897.52;101401;1317;59813;-80
2022/11/04 08:54:54;;;;;;;22.20;10.90;;;;;;;18.29;45.76;100892.55;101233;1324;59682;-81
2022/11/04 08:57:21;;;;;;;21.00;12.40;;;;;;;18.30;45.68;100888.05;101321;1316;59852;-81
2022/11/04 08:59:46;;;;;;;22.10;12.30;;;;;;;18.28;45.78;100882.98;101368;1313;59752;-81
2022/11/04 09:02:15;;;;;;;23.10;12.30;;;;;;;18.21;45.53;100882.84;101305;1314;60961;-81
2022/11/04 09:04:41;;;;;;;24.90;11.90;;;;;;;18.16;45.34;100877.48;101212;1321;60786;-81
2022/11/04 09:07:06;;;;;;;25.40;11.50;;;;;;;18.01;45.01;100874.19;101308;1320;60312;-82
2022/11/04 09:09:32;;;;;;;26.60;11.30;;;;;;;17.94;45.05;100866.95;101303;1320;59612;-81
2022/11/04 09:11:58;;;;;;;25.70;10.20;;;;;;;17.89;44.88;100867.56;101319;1313;57917;-81
2022/11/04 09:14:24;;;;;;;30.70;11.00;;;;;;;17.84;44.91;100867.48;101208;1326;59724;-81
2022/11/04 09:16:49;;;;;;;26.10;10.50;;;;;;;17.84;45.03;100867.81;101312;1321;59441;-81
2022/11/04 09:19:15;;;;;;;22.40;10.70;;;;;;;17.87;45.09;100867.50;101294;1316;60324;-81
2022/11/04 09:21:42;;;;;;;20.10;10.70;;;;;;;17.92;45.23;100868.14;101252;1316;59769;-80
2022/11/04 09:24:10;;;;;;;20.30;11.30;;;;;;;17.93;45.12;100863.44;101278;1316;59720;-80
2022/11/04 09:26:36;;;;;;;21.10;10.50;;;;;;;17.93;45.23;100860.58;101377;1319;60306;-80
2022/11/04 09:29:01;;;;;;;19.20;11.40;;;;;;;17.96;45.24;100861.16;101216;1313;59675;-81
2022/11/04 09:31:28;;;;;;;27.40;10.90;;;;;;;17.97;45.18;100860.93;101404;1321;59779;-80
2022/11/04 09:33:54;;;;;;;21.20;10.90;;;;;;;17.96;45.15;100858.09;101431;1313;59791;-81
2022/11/04 09:36:19;;;;;;;18.60;10.60;;;;;;;17.99;45.14;100851.52;101419;1313;59789;-81
2022/11/04 09:38:45;;;;;;;18.50;9.80;;;;;;;18.03;45.23;100849.34;101467;1321;59692;-80
2022/11/04 09:41:37;;;;;;;16.30;10.10;;;;;;;18.04;45.07;100845.17;101260;1322;61014;-82
2022/11/04 09:44:03;;;;;;;21.40;10.60;;;;;;;18.05;45.17;100840.83;101506;1321;72595;-81
2022/11/04 09:46:30;;;;;;;17.30;9.50;;;;;;;18.08;45.11;100839.60;101344;1319;62958;-81
2022/11/04 09:48:56;;;;;;;26.40;10.20;;;;;;;18.11;45.17;100834.31;101236;1316;60356;-80
2022/11/04 09:51:24;;;;;;;17.40;10.10;;;;;;;18.14;45.18;100827.00;101271;1316;60402;-80
2022/11/04 09:54:04;;;;;;;17.30;9.50;;;;;;;18.16;45.04;100822.07;101619;1313;72405;-81
2022/11/04 09:56:32;;;;;;;21.40;9.30;;;;;;;18.18;45.10;100821.39;102739;1323;74884;-82
2022/11/04 09:59:01;;;;;;;27.20;10.80;;;;;;;18.19;45.03;100815.61;101825;1316;60580;-83
2022/11/04 10:02:10;;;;;;;31.20;11.20;;;;;;;18.18;44.90;100815.86;101584;1313;60455;-81
2022/11/04 10:04:46;;;;;;;33.40;10.50;;;;;;;18.15;45.00;100811.10;101709;1321;73831;-82
2022/11/04 10:07:34;;;;;;;36.30;10.90;;;;;;;18.16;45.13;100805.66;101328;1319;73684;-82
2022/11/04 10:10:00;;;;;;;25.80;10.80;;;;;;;18.17;45.13;100799.02;101402;1324;60687;-81
2022/11/04 10:12:45;;;;;;;31.50;10.80;;;;;;;18.14;45.23;100793.16;101431;1317;60491;-81
2022/11/04 10:15:31;;;;;;;25.00;10.00;;;;;;;18.15;45.23;100787.90;101195;1321;73838;-81
2022/11/04 10:18:12;;;;;;;24.80;10.70;;;;;;;18.15;44.97;100787.40;101316;1320;73831;-81
2022/11/04 10:20:59;;;;;;;21.50;10.80;;;;;;;18.11;45.10;100780.66;101468;1319;61409;-82
2022/11/04 10:23:33;;;;;;;20.70;10.30;;;;;;;18.12;44.92;100775.09;101274;1321;60464;-81
2022/11/04 10:26:06;;;;;;;21.70;10.80;;;;;;;18.14;45.12;100767.65;101395;1318;73655;-80
2022/11/04 10:28:39;;;;;;;22.50;10.40;;;;;;;18.17;45.12;100760.90;102776;1319;74776;-82
2022/11/04 10:31:05;;;;;;;21.70;9.90;;;;;;;18.18;45.17;100761.93;102847;1321;60106;-81
2022/11/04 10:33:36;;;;;;;21.50;10.10;;;;;;;18.16;44.96;100759.33;102775;1319;58551;-81
2022/11/04 10:36:07;;;;;;;19.50;10.50;;;;;;;18.17;44.94;100756.80;101530;1319;72616;-81
2022/11/04 10:38:37;;;;;;;26.70;10.40;;;;;;;18.19;45.00;100750.42;101353;1316;73488;-80
2022/11/04 10:41:11;;;;;;;25.30;10.20;;;;;;;18.19;45.04;100747.41;101262;1317;61305;-81
2022/11/04 10:43:37;;;;;;;22.40;9.90;;;;;;;18.18;44.90;100746.56;101806;1317;60461;-81
2022/11/04 10:46:21;;;;;;;25.80;10.40;;;;;;;18.17;44.68;100739.33;101095;1322;60536;-81
2022/11/04 10:49:00;;;;;;;29.30;11.20;;;;;;;18.18;44.54;100734.30;101423;1317;73828;-80
2022/11/04 10:51:26;;;;;;;20.50;9.50;;;;;;;18.21;44.61;100729.50;101280;1319;60486;-82
2022/11/04 10:53:53;;;;;;;27.80;10.20;;;;;;;18.22;44.64;100728.70;101322;1316;60443;-82
2022/11/04 10:56:39;;;;;;;34.30;10.70;;;;;;;18.22;44.45;100727.27;101300;1316;60575;-81
2022/11/04 10:59:48;;;;;;;20.20;9.60;;;;;;;18.19;44.26;100726.92;101381;1313;73587;-82
2022/11/04 11:02:35;;;;;;;27.60;9.60;;;;;;;18.15;44.10;100723.10;101333;1313;61016;-80
2022/11/04 11:05:13;;;;;;;25.40;9.90;;;;;;;18.18;44.33;100716.82;101253;1313;60496;-81
2022/11/04 11:07:39;;;;;;;25.40;10.40;;;;;;;18.23;44.41;100712.05;101239;1319;72639;-82
2022/11/04 11:10:06;;;;;;;29.20;10.00;;;;;;;18.25;44.38;100709.09;101199;1320;60578;-81
2022/11/04 11:12:39;;;;;;;32.20;10.10;;;;;;;18.24;44.30;100705.24;101280;1320;60520;-80
2022/11/04 11:15:28;;;;;;;22.60;9.60;;;;;;;18.24;44.25;100705.41;101173;1316;60559;-80
2022/11/04 11:18:05;;;;;;;36.10;10.30;;;;;;;18.24;44.21;100697.73;101282;1313;72582;-80
2022/11/04 11:20:32;;;;;;;27.80;9.90;;;;;;;18.24;44.04;100693.83;101195;1319;72311;-80
2022/11/04 11:22:58;;;;;;;25.00;10.40;;;;;;;18.26;44.35;100690.35;101637;1317;61293;-80
2022/11/04 11:25:29;;;;;;;23.50;9.90;;;;;;;18.28;44.32;100687.02;101517;1316;62723;-80
2022/11/04 11:27:58;;;;;;;19.60;9.50;;;;;;;18.29;44.24;100681.79;102937;1313;72634;-80
2022/11/04 11:30:25;;;;;;;24.80;9.80;;;;;;;18.26;44.14;100677.51;102908;1320;73668;-80
2022/11/04 11:32:55;;;;;;;35.30;10.60;;;;;;;18.25;44.23;100676.83;102962;1313;60032;-80
2022/11/04 11:35:22;;;;;;;32.30;9.70;;;;;;;18.28;44.40;100674.19;102830;1329;60221;-80
2022/11/04 11:37:48;;;;;;;35.50;10.70;;;;;;;18.33;44.57;100670.52;101355;1316;72644;-80
2022/11/04 11:40:30;;;;;;;33.40;10.90;;;;;;;18.39;45.12;100666.59;101406;1319;60682;-80
2022/11/04 11:42:57;;;;;;;35.00;10.80;;;;;;;18.43;45.50;100668.27;102645;1321;61071;-81
2022/11/04 11:45:24;;;;;;;40.20;10.00;;;;;;;18.44;45.58;100663.78;101747;1313;61204;-81
2022/11/04 11:47:53;;;;;;;31.10;11.30;;;;;;;18.46;45.65;100655.68;101617;1329;73309;-81
2022/11/04 11:50:24;;;;;;;;;;;;;;;18.47;45.56;100644.20;101857;1329;73892;-81
2022/11/04 11:52:53;;;;;;;27.40;9.70;;;;;;;18.46;45.60;100638.20;102985;1334;60971;-81
2022/11/04 11:55:26;;;;;;;22.20;8.40;;;;;;;18.47;45.66;100635.05;102871;1335;60444;-81
2022/11/04 11:57:51;;;;;;;26.70;9.70;;;;;;;18.48;45.45;100635.52;102715;1330;71811;-81
2022/11/04 12:00:19;;;;;;;30.10;9.50;;;;;;;18.49;45.18;100634.11;102944;1321;59261;-81
2022/11/04 12:02:55;;;;;;;25.50;8.70;;;;;;;18.48;45.20;100628.26;102846;1321;60241;-81
2022/11/04 12:05:45;;;;;;;27.40;9.10;;;;;;;18.47;44.95;100627.23;102817;1329;60179;-81
2022/11/04 12:08:45;;;;;;;23.80;8.60;;;;;;;18.49;44.95;100629.42;102776;1334;73557;-81
2022/11/04 12:11:36;;;;;;;19.20;8.40;;;;;;;18.50;45.02;100623.14;102828;1329;74087;-82
2022/11/04 12:14:09;;;;;;;30.40;8.50;;;;;;;18.48;44.72;100621.45;102823;1328;60116;-81
2022/11/04 12:16:47;;;;;;;28.50;8.70;;;;;;;18.46;44.68;100618.20;102799;1330;60177;-81
2022/11/04 12:19:16;;;;;;;25.60;8.50;;;;;;;18.47;44.56;100609.06;102778;1329;73470;-81
2022/11/04 12:21:44;;;;;;;28.30;9.00;;;;;;;18.48;44.53;100608.13;102948;1335;73711;-81
2022/11/04 12:24:43;;;;;;;21.00;8.40;;;;;;;18.49;44.57;100609.31;102147;1318;60359;-81
2022/11/04 12:27:30;;;;;;;26.80;10.40;;;;;;;18.49;44.78;100608.03;101949;1333;60491;-81
2022/11/04 12:29:56;;;;;;;23.70;10.50;;;;;;;18.52;44.96;100608.71;102066;1318;72405;-80
2022/11/04 12:32:27;;;;;;;31.70;10.90;;;;;;;18.55;45.15;100609.23;101941;1321;60543;-81
2022/11/04 12:35:19;;;;;;;18.00;10.30;;;;;;;18.58;45.43;100609.77;101961;1321;60428;-80
2022/11/04 12:38:09;;;;;;;28.10;9.80;;;;;;;18.60;45.50;100606.82;102038;1334;60421;-83
2022/11/04 12:40:47;;;;;;;27.50;9.60;;;;;;;18.61;45.52;100606.39;101999;1317;72674;-81
2022/11/04 12:43:29;;;;;;;23.60;9.80;;;;;;;18.61;45.32;100599.80;101951;1329;73827;-82
2022/11/04 12:46:06;;;;;;;22.80;9.20;;;;;;;18.60;45.30;100595.78;101941;1320;60574;-81
2022/11/04 12:48:56;;;;;;;16.00;8.80;;;;;;;18.58;45.02;100598.19;101754;1329;61317;-81
2022/11/04 12:51:35;;;;;;;18.30;8.70;;;;;;;18.55;44.97;100593.77;101944;1320;72417;-81
2022/11/04 12:54:16;;;;;;;23.70;9.10;;;;;;;18.54;44.70;100596.71;102015;1321;73717;-81
2022/11/04 12:56:48;;;;;;;24.20;9.30;;;;;;;18.52;44.88;100596.23;102896;1328;60383;-81
2022/11/04 12:59:20;;;;;;;23.00;8.90;;;;;;;18.53;44.73;100595.33;102863;1330;59269;-82
2022/11/04 13:01:55;;;;;;;21.60;8.60;;;;;;;18.55;44.86;100594.48;102784;1336;73653;-81
2022/11/04 13:04:25;;;;;;;23.80;8.70;;;;;;;18.57;44.84;100589.39;102699;1336;74152;-81
2022/11/04 13:06:59;;;;;;;17.20;8.50;;;;;;;18.56;44.83;100575.31;102691;1329;61143;-82
2022/11/04 13:09:40;;;;;;;16.80;8.40;;;;;;;18.57;45.02;100567.96;102707;1332;60042;-81
2022/11/04 13:12:16;;;;;;;17.40;8.50;;;;;;;18.58;44.84;100564.35;102965;1327;73419;-81
2022/11/04 13:14:45;;;;;;;12.70;8.30;;;;;;;18.58;44.51;100561.27;102621;1338;74960;-81
2022/11/04 13:17:13;;;;;;;18.20;8.40;;;;;;;18.59;44.60;100556.26;102905;1328;61090;-81
2022/11/04 13:19:41;;;;;;;18.00;8.20;;;;;;;18.58;44.51;100552.57;102124;1329;60387;-81
2022/11/04 13:22:13;;;;;;;18.20;8.90;;;;;;;18.56;44.17;100552.91;101998;1326;73623;-81
2022/11/04 13:24:41;;;;;;;12.60;8.30;;;;;;;18.54;44.13;100546.61;101877;1327;74766;-81
2022/11/04 13:27:29;;;;;;;18.30;8.30;;;;;;;18.51;43.90;100545.02;101970;1331;61303;-81
2022/11/04 13:30:33;;;;;;;15.00;9.20;;;;;;;18.48;43.82;100538.98;102055;1328;61464;-80
2022/11/04 13:33:11;;;;;;;13.70;8.60;;;;;;;18.48;44.01;100544.70;101900;1329;73571;-81
2022/11/04 13:35:56;;;;;;;16.40;8.70;;;;;;;18.49;44.04;100541.98;102918;1336;74842;-81
2022/11/04 13:38:27;;;;;;;17.30;8.60;;;;;;;18.48;43.93;100539.83;102527;1336;61290;-81
2022/11/04 13:41:25;;;;;;;14.50;9.20;;;;;;;18.47;43.95;100537.59;101848;1329;61323;-81
2022/11/04 13:43:55;;;;;;;16.00;8.70;;;;;;;18.47;43.99;100533.48;101971;1332;73062;-81
2022/11/04 13:46:22;;;;;;;18.10;8.90;;;;;;;18.48;44.00;100534.89;101923;1329;74784;-82
2022/11/04 13:49:11;;;;;;;16.00;8.90;;;;;;;18.48;43.93;100532.17;102006;1332;61280;-81
2022/11/04 13:51:42;;;;;;;15.30;8.50;;;;;;;18.48;43.97;100533.08;101876;1327;61296;-82
2022/11/04 13:54:30;;;;;;;21.80;9.70;;;;;;;18.48;43.98;100535.94;101867;1329;72687;-81
2022/11/04 13:57:03;;;;;;;17.80;9.60;;;;;;;18.49;44.09;100533.73;101956;1332;73712;-81
2022/11/04 13:59:29;;;;;;;23.00;9.70;;;;;;;18.50;44.49;100533.31;101929;1330;60389;-81
2022/11/04 14:02:10;;;;;;;18.80;9.60;;;;;;;18.51;44.59;100535.20;101848;1329;60519;-81
2022/11/04 14:04:40;;;;;;;18.90;8.40;;;;;;;18.52;44.62;100531.55;101991;1329;73721;-81
2022/11/04 14:07:10;;;;;;;17.20;8.40;;;;;;;18.53;44.70;100531.67;102044;1332;74549;-81
2022/11/04 14:09:35;;;;;;;18.50;9.10;;;;;;;18.53;44.76;100532.77;101933;1332;60325;-82
2022/11/04 14:12:13;;;;;;;20.10;10.10;;;;;;;18.53;44.82;100532.20;102042;1326;60516;-81
2022/11/04 14:14:52;;;;;;;15.70;9.10;;;;;;;18.54;44.85;100529.69;101993;1316;72417;-82
2022/11/04 14:17:34;;;;;;;20.00;9.60;;;;;;;18.54;44.93;100528.08;101847;1320;74932;-82
2022/11/04 14:20:21;;;;;;;21.10;10.00;;;;;;;18.54;44.99;100525.73;102058;1326;60372;-81
2022/11/04 14:23:00;;;;;;;19.10;9.40;;;;;;;18.53;44.95;100525.27;102061;1333;60512;-81
2022/11/04 14:25:35;;;;;;;20.70;10.70;;;;;;;18.54;45.00;100528.98;101923;1329;73522;-82
2022/11/04 14:28:28;;;;;;;20.20;9.80;;;;;;;18.53;45.13;100530.77;101933;1319;74839;-82
2022/11/04 14:31:01;;;;;;;22.70;10.10;;;;;;;18.54;45.14;100526.67;101915;1326;61107;-81
2022/11/04 14:33:45;;;;;;;18.80;10.90;;;;;;;18.54;45.24;100524.50;101848;1333;61333;-81
2022/11/04 14:36:16;;;;;;;19.30;10.70;;;;;;;18.54;45.10;100519.86;101984;1334;72508;-82
2022/11/04 14:38:41;;;;;;;22.00;10.80;;;;;;;18.54;45.27;100517.34;101912;1329;72893;-82
2022/11/04 14:41:39;;;;;;;22.80;11.10;;;;;;;18.55;45.31;100513.39;101844;1319;60512;-82
2022/11/04 14:44:11;;;;;;;15.80;10.10;;;;;;;18.55;45.29;100513.19;101791;1333;60515;-80
2022/11/04 14:46:40;;;;;;;17.50;10.40;;;;;;;18.55;45.40;100510.50;101913;1333;73313;-80
2022/11/04 14:49:06;;;;;;;;;;;;;;;18.55;45.42;100505.33;101908;1329;73703;-81
2022/11/04 14:51:38;;;;;;;20.00;10.90;;;;;;;18.54;45.30;100504.57;102003;1317;60531;-81
2022/11/04 14:54:07;;;;;;;14.00;8.70;;;;;;;18.54;45.36;100500.96;102000;1330;61011;-81
2022/11/04 14:56:32;;;;;;;13.10;8.20;;;;;;;18.55;45.34;100501.10;101906;1332;73389;-82
2022/11/04 14:59:04;;;;;;;16.60;8.20;;;;;;;18.54;45.30;100498.46;101831;1329;60515;-81
2022/11/04 15:01:37;;;;;;;15.70;8.40;;;;;;;18.54;45.23;100498.99;101867;1332;61277;-82
2022/11/04 15:04:05;;;;;;;14.40;8.50;;;;;;;18.54;45.23;100498.83;101927;1334;60491;-82
2022/11/04 15:06:31;;;;;;;14.40;8.00;;;;;;;18.54;45.19;100500.05;101944;1329;72737;-82
2022/11/04 15:08:57;;;;;;;16.70;7.60;;;;;;;18.54;45.05;100501.50;101913;1335;61265;-82
2022/11/04 15:14:22;;;;;;;22.20;9.00;;;;;;;18.54;45.13;100497.21;102040;1328;60582;-81
2022/11/04 15:16:50;;;;;;;21.00;8.80;;;;;;;18.54;45.06;100499.37;102029;1329;73496;-81
2022/11/04 15:19:23;;;;;;;19.10;8.70;;;;;;;18.54;45.05;100495.45;101927;1326;74823;-81
2022/11/04 15:21:48;;;;;;;17.20;9.20;;;;;;;18.54;44.94;100494.76;101916;1331;61314;-82
2022/11/04 15:24:17;;;;;;;16.80;9.60;;;;;;;18.54;45.04;100495.99;101892;1332;60547;-82
2022/11/04 15:26:43;;;;;;;21.10;9.70;;;;;;;18.54;44.98;100493.84;101912;1334;72536;-82
2022/11/04 15:29:10;;;;;;;17.30;9.40;;;;;;;18.54;44.94;100492.25;101914;1335;60563;-82
2022/11/04 15:31:36;;;;;;;16.90;9.20;;;;;;;18.54;44.86;100492.08;101948;1327;60517;-82
2022/11/04 15:34:03;;;;;;;15.90;9.80;;;;;;;18.53;44.90;100490.14;101966;1326;60595;-83
2022/11/04 15:36:37;;;;;;;20.70;10.40;;;;;;;18.54;44.80;100486.38;101799;1338;72682;-82
2022/11/04 15:39:07;;;;;;;19.00;10.30;;;;;;;18.53;44.89;100487.31;101902;1334;74762;-82
2022/11/04 15:44:20;;;;;;;18.60;10.10;;;;;;;18.53;44.85;100481.61;101951;1329;60544;-82
2022/11/04 15:46:50;;;;;;;17.90;10.10;;;;;;;18.53;45.01;100479.49;101925;1332;72545;-82
2022/11/04 15:49:26;;;;;;;19.90;10.80;;;;;;;18.53;44.96;100478.42;101949;1334;73718;-82
2022/11/04 15:52:06;;;;;;;17.10;10.80;;;;;;;18.52;45.08;100476.50;102092;1327;60433;-82
2022/11/04 15:54:38;;;;;;;;;;;;;;;18.52;45.08;100476.86;101948;1333;62239;-82
2022/11/04 15:57:17;;;;;;;17.60;11.50;;;;;;;18.50;45.06;100476.66;102011;1327;73408;-82
2022/11/04 16:00:09;;;;;;;21.50;11.20;;;;;;;18.50;45.12;100479.67;101913;1326;73768;-82
2022/11/04 16:02:43;;;;;;;21.10;10.80;;;;;;;18.49;45.25;100481.69;101955;1329;60397;-82
2022/11/04 16:05:09;;;;;;;18.70;11.40;;;;;;;18.49;45.30;100477.94;102086;1333;61264;-82
2022/11/04 16:07:36;;;;;;;20.10;11.10;;;;;;;18.50;45.25;100482.90;101880;1327;60528;-82
2022/11/04 16:10:19;;;;;;;17.30;10.50;;;;;;;18.49;45.36;100482.39;101876;1333;74573;-82
2022/11/04 16:12:44;;;;;;;16.00;10.60;;;;;;;18.49;45.36;100476.19;101821;1333;61182;-82
2022/11/04 16:15:50;;;;;;;19.10;11.20;;;;;;;18.49;45.56;100479.19;101857;1332;59372;-82
2022/11/04 16:18:28;;;;;;;21.20;11.80;;;;;;;18.48;45.45;100478.19;101743;1333;73634;-82
2022/11/04 16:20:54;;;;;;;15.60;10.60;;;;;;;18.49;45.48;100482.56;101688;1335;74853;-82
2022/11/04 16:23:21;;;;;;;22.10;11.70;;;;;;;18.49;45.62;100483.99;101582;1338;60526;-82
2022/11/04 16:26:00;;;;;;;19.00;11.20;;;;;;;18.49;45.69;100483.12;101341;1338;60364;-82
2022/11/04 16:28:30;;;;;;;19.80;11.10;;;;;;;18.49;45.67;100484.38;101723;1335;72398;-82
2022/11/04 16:31:23;;;;;;;18.00;11.20;;;;;;;18.48;45.64;100484.06;101645;1337;74650;-83
2022/11/04 16:33:49;;;;;;;16.90;11.20;;;;;;;18.48;45.74;100483.52;101595;1338;60615;-82
2022/11/04 16:36:23;;;;;;;22.10;12.40;;;;;;;18.49;45.79;100484.23;101565;1342;60641;-82
2022/11/04 16:38:56;;;;;;;19.80;11.60;;;;;;;18.48;45.85;100489.79;101651;1335;72553;-82
2022/11/04 16:41:22;;;;;;;18.00;11.00;;;;;;;18.48;45.75;100488.17;101727;1335;74328;-82
2022/11/04 16:43:48;;;;;;;17.80;11.40;;;;;;;18.49;45.85;100490.48;101670;1342;60512;-82
2022/11/04 16:46:13;;;;;;;19.40;11.70;;;;;;;18.48;45.96;100494.96;101712;1341;60493;-83
2022/11/04 16:48:39;;;;;;;19.60;10.80;;;;;;;18.48;45.95;100496.39;101717;1333;60524;-82
2022/11/04 16:51:04;;;;;;;18.60;11.80;;;;;;;18.48;45.96;100496.73;101913;1329;60525;-82
2022/11/04 16:53:30;;;;;;;19.50;11.80;;;;;;;18.48;46.00;100495.13;101951;1332;60595;-82
2022/11/04 16:55:56;;;;;;;18.90;11.30;;;;;;;18.48;45.97;100492.09;101945;1332;60564;-82
2022/11/04 16:58:21;;;;;;;18.10;11.70;;;;;;;18.48;46.00;100490.89;101918;1334;60544;-82
2022/11/04 17:00:47;;;;;;;20.30;12.00;;;;;;;18.48;46.10;100493.20;101918;1335;60533;-82
2022/11/04 17:03:21;;;;;;;17.80;11.30;;;;;;;18.48;46.14;100493.91;101908;1334;60563;-82
2022/11/04 17:05:52;;;;;;;16.80;11.50;;;;;;;18.47;46.17;100498.94;101926;1328;60515;-82